createdAt,value
2023-08-17T00:00:27.054Z,99296.24
2023-08-17T00:02:54.487Z,99293.52
2023-08-17T00:05:22.004Z,99291.83
2023-08-17T00:07:49.511Z,99290.21
2023-08-17T00:10:16.885Z,99286.25
2023-08-17T00:12:44.422Z,99286.60
2023-08-17T00:15:11.884Z,99285.91
2023-08-17T00:17:39.380Z,99285.40
2023-08-17T00:20:08.060Z,99287.96
2023-08-17T00:22:35.411Z,99290.45
2023-08-17T00:25:05.871Z,99286.90
2023-08-17T00:27:33.970Z,99284.05
2023-08-17T00:30:01.360Z,99285.32
2023-08-17T00:32:28.756Z,99283.01
2023-08-17T00:34:56.163Z,99282.06
2023-08-17T00:37:23.861Z,99281.51
2023-08-17T00:39:51.980Z,99281.27
2023-08-17T00:42:19.294Z,99276.42
2023-08-17T00:44:46.685Z,99271.97
2023-08-17T00:47:14.002Z,99269.71
2023-08-17T00:49:42.049Z,99271.95
2023-08-17T00:52:09.390Z,99276.52
2023-08-17T00:54:36.705Z,99277.08
2023-08-17T00:57:07.892Z,99276.53
2023-08-17T00:59:37.029Z,99275.88
2023-08-17T01:02:04.908Z,99274.15
2023-08-17T01:04:32.921Z,99270.89
2023-08-17T01:07:00.354Z,99269.80
2023-08-17T01:09:28.354Z,99266.20
2023-08-17T01:12:25.584Z,99263.06
2023-08-17T01:15:22.564Z,99264.90
2023-08-17T01:18:32.055Z,99265.91
2023-08-17T01:20:59.554Z,99270.23
2023-08-17T01:23:26.881Z,99270.14
2023-08-17T01:28:10.761Z,99273.59
2023-08-17T01:31:02.356Z,99269.93
2023-08-17T01:33:41.640Z,99271.38
2023-08-17T01:36:14.263Z,99271.25
2023-08-17T01:38:41.965Z,99264.65
2023-08-17T01:41:14.387Z,99263.03
2023-08-17T01:43:47.235Z,99264.76
2023-08-17T01:46:16.847Z,99263.45
2023-08-17T01:48:45.303Z,99260.75
2023-08-17T01:51:20.953Z,99262.91
2023-08-17T01:53:48.526Z,99265.13
2023-08-17T01:56:15.964Z,99263.89
2023-08-17T01:58:43.392Z,99264.77
2023-08-17T02:01:11.339Z,99261.00
2023-08-17T02:03:38.945Z,99263.89
2023-08-17T02:06:06.509Z,99262.91
2023-08-17T02:08:34.823Z,99260.95
2023-08-17T02:11:02.201Z,99260.36
2023-08-17T02:13:29.638Z,99261.02
2023-08-17T02:16:06.958Z,99256.10
2023-08-17T02:18:36.342Z,99252.98
2023-08-17T02:21:03.904Z,99250.61
2023-08-17T02:23:31.261Z,99253.40
2023-08-17T02:25:58.588Z,99262.06
2023-08-17T02:28:25.916Z,99262.58
2023-08-17T02:31:00.062Z,99261.58
2023-08-17T02:33:28.976Z,99254.89
2023-08-17T02:35:56.424Z,99257.52
2023-08-17T02:38:24.229Z,99249.64
2023-08-17T02:40:51.654Z,99248.96
2023-08-17T02:43:19.148Z,99247.27
2023-08-17T02:45:46.528Z,99252.77
2023-08-17T02:48:13.965Z,99255.08
2023-08-17T02:50:42.343Z,99255.30
2023-08-17T02:53:09.908Z,99259.02
2023-08-17T02:55:37.824Z,99258.18
2023-08-17T02:58:05.200Z,99260.26
2023-08-17T03:00:32.587Z,99257.77
2023-08-17T03:03:00.021Z,99261.11
2023-08-17T03:05:27.495Z,99257.94
2023-08-17T03:07:55.880Z,99255.99
2023-08-17T03:10:23.339Z,99254.76
2023-08-17T03:12:52.176Z,99256.70
2023-08-17T03:15:19.579Z,99254.95
2023-08-17T03:17:47.028Z,99255.40
2023-08-17T03:20:14.562Z,99252.36
2023-08-17T03:22:42.008Z,99256.82
2023-08-17T03:25:09.779Z,99259.70
2023-08-17T03:27:37.560Z,99260.25
2023-08-17T03:30:06.212Z,99258.32
2023-08-17T03:32:33.839Z,99257.10
2023-08-17T03:35:01.202Z,99252.87
2023-08-17T03:37:28.875Z,99256.64
2023-08-17T03:39:56.480Z,99254.63
2023-08-17T03:42:23.832Z,99253.15
2023-08-17T03:48:04.233Z,99250.21
2023-08-17T03:50:32.117Z,99254.86
2023-08-17T03:53:00.066Z,99252.55
2023-08-17T03:55:27.917Z,99253.63
2023-08-17T03:57:55.937Z,99250.69
2023-08-17T04:00:23.258Z,99246.52
2023-08-17T04:02:54.753Z,99249.94
2023-08-17T04:05:22.481Z,99249.59
2023-08-17T04:07:49.892Z,99252.80
2023-08-17T04:10:17.328Z,99249.02
2023-08-17T04:12:44.713Z,99245.69
2023-08-17T04:15:12.052Z,99248.59
2023-08-17T04:17:39.714Z,99250.80
2023-08-17T04:20:08.338Z,99247.21
2023-08-17T04:22:35.643Z,99252.83
2023-08-17T04:25:03.004Z,99253.60
2023-08-17T04:27:31.444Z,99252.16
2023-08-17T04:29:59.225Z,99257.37
2023-08-17T04:32:27.484Z,99264.39
2023-08-17T04:34:55.025Z,99264.64
2023-08-17T04:37:22.418Z,99266.16
2023-08-17T04:39:50.353Z,99257.26
2023-08-17T04:42:21.194Z,99253.48
2023-08-17T04:44:48.664Z,99258.13
2023-08-17T04:47:16.059Z,99260.02
2023-08-17T04:49:43.698Z,99262.54
2023-08-17T04:52:11.135Z,99261.33
2023-08-17T04:54:38.877Z,99261.17
2023-08-17T04:57:06.776Z,99260.36
2023-08-17T04:59:34.361Z,99263.63
2023-08-17T05:02:01.779Z,99269.95
2023-08-17T05:04:31.366Z,99270.83
2023-08-17T05:06:58.734Z,99269.91
2023-08-17T05:09:27.532Z,99263.75
2023-08-17T05:11:55.699Z,99264.94
2023-08-17T05:14:23.064Z,99265.84
2023-08-17T05:16:50.419Z,99269.56
2023-08-17T05:19:17.995Z,99265.63
2023-08-17T05:21:45.403Z,99262.56
2023-08-17T05:24:13.077Z,99268.86
2023-08-17T05:26:40.849Z,99264.21
2023-08-17T05:29:08.177Z,99261.42
2023-08-17T05:31:35.578Z,99265.75
2023-08-17T05:34:03.288Z,99265.57
2023-08-17T05:36:31.078Z,99269.49
2023-08-17T05:38:58.628Z,99268.64
2023-08-17T05:41:25.998Z,99268.65
2023-08-17T05:43:53.643Z,99263.28
2023-08-17T05:46:21.009Z,99263.00
2023-08-17T05:48:48.493Z,99260.25
2023-08-17T05:51:15.856Z,99254.64
2023-08-17T05:53:43.362Z,99249.88
2023-08-17T05:56:10.741Z,99246.25
2023-08-17T05:58:38.081Z,99243.77
2023-08-17T06:01:09.352Z,99243.81
2023-08-17T06:03:37.711Z,99241.52
2023-08-17T06:06:06.744Z,99241.39
2023-08-17T06:08:34.215Z,99240.10
2023-08-17T06:11:02.068Z,99242.36
2023-08-17T06:13:29.492Z,99243.73
2023-08-17T06:16:00.074Z,99238.17
2023-08-17T06:18:27.413Z,99240.27
2023-08-17T06:20:55.126Z,99243.62
2023-08-17T06:23:22.691Z,99246.52
2023-08-17T06:25:50.009Z,99246.35
2023-08-17T06:28:17.340Z,99249.91
2023-08-17T06:30:44.693Z,99256.09
2023-08-17T06:33:12.811Z,99259.13
2023-08-17T06:35:40.267Z,99261.69
2023-08-17T06:38:07.613Z,99264.45
2023-08-17T06:40:34.959Z,99263.69
2023-08-17T06:43:02.433Z,99261.31
2023-08-17T06:45:29.896Z,99265.64
2023-08-17T06:47:57.327Z,99264.51
2023-08-17T06:50:25.041Z,99262.08
2023-08-17T06:52:52.409Z,99264.77
2023-08-17T06:55:19.860Z,99260.86
2023-08-17T06:57:48.377Z,99257.78
2023-08-17T07:00:16.166Z,99256.39
2023-08-17T07:02:53.872Z,99255.52
2023-08-17T07:05:22.551Z,99255.06
2023-08-17T07:07:50.123Z,99256.74
2023-08-17T07:10:17.551Z,99257.33
2023-08-17T07:12:44.860Z,99254.87
2023-08-17T07:15:13.744Z,99256.73
2023-08-17T07:17:41.190Z,99257.36
2023-08-17T07:22:39.428Z,99263.82
2023-08-17T07:25:09.953Z,99262.85
2023-08-17T07:27:37.386Z,99260.90
2023-08-17T07:30:05.431Z,99263.42
2023-08-17T07:32:33.329Z,99264.91
2023-08-17T07:35:00.742Z,99261.06
2023-08-17T07:37:34.899Z,99259.01
2023-08-17T07:40:05.044Z,99258.36
2023-08-17T07:44:59.998Z,99254.15
2023-08-17T07:47:27.850Z,99251.52
2023-08-17T07:49:56.034Z,99247.54
2023-08-17T07:52:23.373Z,99245.27
2023-08-17T07:54:50.671Z,99245.23
2023-08-17T07:57:17.995Z,99247.11
2023-08-17T07:59:45.584Z,99250.45
2023-08-17T08:02:12.908Z,99245.66
2023-08-17T08:04:40.249Z,99240.39
2023-08-17T08:07:07.561Z,99237.53
2023-08-17T08:09:34.835Z,99235.43
2023-08-17T08:12:02.967Z,99234.92
2023-08-17T08:14:30.667Z,99234.64
2023-08-17T08:16:57.952Z,99233.80
2023-08-17T08:19:25.473Z,99241.91
2023-08-17T08:21:52.723Z,99243.23
2023-08-17T08:24:36.542Z,99237.64
2023-08-17T08:27:05.206Z,99235.10
2023-08-17T08:29:32.500Z,99231.89
2023-08-17T08:32:01.180Z,99228.74
2023-08-17T08:34:28.489Z,99223.34
2023-08-17T08:36:56.085Z,99225.17
2023-08-17T08:39:23.372Z,99228.87
2023-08-17T08:41:50.801Z,99231.28
2023-08-17T08:44:18.056Z,99225.14
2023-08-17T08:46:45.821Z,99224.58
2023-08-17T08:49:13.263Z,99228.93
2023-08-17T08:51:43.763Z,99232.55
2023-08-17T08:54:14.654Z,99234.93
2023-08-17T08:56:47.835Z,99232.44
2023-08-17T08:59:15.506Z,99233.84
2023-08-17T09:01:42.981Z,99230.97
2023-08-17T09:04:10.490Z,99233.23
2023-08-17T09:06:37.732Z,99231.37
2023-08-17T09:09:05.198Z,99223.64
2023-08-17T09:11:32.505Z,99223.85
2023-08-17T09:13:59.884Z,99219.85
2023-08-17T09:16:28.743Z,99221.36
2023-08-17T09:18:56.538Z,99218.40
2023-08-17T09:21:24.592Z,99216.38
2023-08-17T09:26:26.375Z,99207.62
2023-08-17T09:28:57.960Z,99210.27
2023-08-17T09:31:25.831Z,99208.89
2023-08-17T09:33:53.700Z,99206.61
2023-08-17T09:36:24.602Z,99207.44
2023-08-17T09:38:52.109Z,99207.39
2023-08-17T09:41:20.327Z,99207.27
2023-08-17T09:43:48.251Z,99205.02
2023-08-17T09:46:16.095Z,99207.08
2023-08-17T09:48:47.116Z,99202.52
2023-08-17T09:51:17.931Z,99204.65
2023-08-17T09:53:45.170Z,99201.73
2023-08-17T09:58:43.600Z,99198.80
2023-08-17T10:01:11.291Z,99199.74
2023-08-17T10:03:39.252Z,99194.17
2023-08-17T10:06:08.074Z,99191.85
2023-08-17T10:08:40.755Z,99190.48
2023-08-17T10:11:10.152Z,99188.71
2023-08-17T10:13:46.514Z,99185.88
2023-08-17T10:16:20.116Z,99184.33
2023-08-17T10:26:23.378Z,99179.41
2023-08-17T10:28:51.515Z,99171.88
2023-08-17T10:31:18.914Z,99173.03
2023-08-17T10:33:47.266Z,99168.19
2023-08-17T10:36:14.596Z,99170.39
2023-08-17T10:38:41.883Z,99170.17
2023-08-17T10:43:57.807Z,99169.63
2023-08-17T10:46:38.375Z,99169.48
2023-08-17T10:49:09.376Z,99171.40
2023-08-17T10:51:36.758Z,99168.88
2023-08-17T10:54:05.311Z,99170.11
2023-08-17T10:56:34.064Z,99166.89
2023-08-17T10:59:03.155Z,99159.92
2023-08-17T11:01:34.451Z,99159.55
2023-08-17T11:04:17.754Z,99159.73
2023-08-17T11:06:45.908Z,99161.27
2023-08-17T11:09:13.498Z,99155.77
2023-08-17T11:11:40.984Z,99152.44
2023-08-17T11:14:08.303Z,99154.15
2023-08-17T11:16:35.696Z,99155.59
2023-08-17T11:19:03.277Z,99152.89
2023-08-17T11:21:30.579Z,99154.96
2023-08-17T11:23:58.536Z,99152.70
2023-08-17T11:26:26.126Z,99150.71
2023-08-17T11:28:53.486Z,99151.55
2023-08-17T11:31:20.810Z,99150.16
2023-08-17T11:33:48.644Z,99146.18
2023-08-17T11:36:16.216Z,99145.49
2023-08-17T11:38:44.709Z,99141.02
2023-08-17T11:43:43.600Z,99138.21
2023-08-17T11:46:11.300Z,99137.00
2023-08-17T11:48:38.808Z,99133.26
2023-08-17T11:51:06.175Z,99133.01
2023-08-17T11:53:35.611Z,99136.80
2023-08-17T11:56:06.827Z,99132.21
2023-08-17T11:58:46.754Z,99128.44
2023-08-17T12:01:17.238Z,99125.06
2023-08-17T12:03:45.109Z,99129.77
2023-08-17T12:06:15.813Z,99129.45
2023-08-17T12:08:48.435Z,99130.13
2023-08-17T12:11:19.797Z,99136.10
2023-08-17T12:13:54.171Z,99130.17
2023-08-17T12:16:22.823Z,99129.36
2023-08-17T12:18:53.690Z,99128.21
2023-08-17T12:21:23.140Z,99122.27
2023-08-17T12:23:50.656Z,99119.73
2023-08-17T12:26:24.301Z,99119.94
2023-08-17T12:28:51.685Z,99115.85
2023-08-17T12:31:23.406Z,99115.54
2023-08-17T12:33:51.740Z,99110.58
2023-08-17T12:36:19.996Z,99110.85
2023-08-17T12:38:49.368Z,99107.33
2023-08-17T12:41:17.527Z,99107.41
2023-08-17T12:43:45.166Z,99105.58
2023-08-17T12:46:12.503Z,99103.23
2023-08-17T12:48:40.292Z,99098.08
2023-08-17T16:46:38.301Z,99033.91
2023-08-17T16:49:04.864Z,99035.75
2023-08-17T16:51:35.942Z,99040.31
2023-08-17T16:54:03.665Z,99045.24
2023-08-17T16:56:30.483Z,99045.28
2023-08-17T16:59:01.690Z,99046.38
2023-08-17T17:01:29.359Z,99043.22
2023-08-17T17:03:56.116Z,99046.52
2023-08-17T17:06:22.677Z,99045.86
2023-08-17T17:08:49.233Z,99056.77
2023-08-17T17:11:15.941Z,99054.18
2023-08-17T17:13:42.627Z,99056.21
2023-08-17T17:16:09.329Z,99061.73
2023-08-17T17:18:35.931Z,99061.29
2023-08-17T17:21:02.608Z,99063.52
2023-08-17T17:23:29.320Z,99064.09
2023-08-17T17:25:55.995Z,99063.24
2023-08-17T17:28:22.490Z,99062.88
2023-08-17T17:30:49.199Z,99062.83
2023-08-17T17:33:15.871Z,99062.70
2023-08-17T17:35:42.402Z,99059.23
2023-08-17T17:38:10.355Z,99057.94
2023-08-17T17:40:37.132Z,99058.16
2023-08-17T17:43:04.233Z,99063.67
2023-08-17T17:45:30.958Z,99061.95
2023-08-17T17:47:57.848Z,99070.02
2023-08-17T17:50:24.666Z,99067.71
2023-08-17T17:52:51.802Z,99070.44
2023-08-17T17:55:18.623Z,99067.95
2023-08-17T17:57:45.360Z,99069.71
2023-08-17T18:00:14.038Z,99072.45
2023-08-17T18:02:42.626Z,99075.23
2023-08-17T18:05:10.260Z,99076.38
2023-08-17T18:07:37.038Z,99081.39
2023-08-17T18:10:04.526Z,99084.55
2023-08-17T18:12:32.820Z,99082.88
2023-08-17T18:14:59.678Z,99087.23
2023-08-17T18:17:26.762Z,99082.97
2023-08-17T18:19:53.655Z,99083.84
2023-08-17T18:22:21.182Z,99082.84
2023-08-17T18:24:50.696Z,99089.20
2023-08-17T18:27:17.387Z,99088.63
2023-08-17T18:29:44.327Z,99091.73
2023-08-17T18:32:11.166Z,99089.78
2023-08-17T18:34:37.854Z,99091.91
2023-08-17T18:37:04.724Z,99090.73
2023-08-17T18:39:31.629Z,99092.27
2023-08-17T18:41:58.472Z,99093.31
2023-08-17T18:44:25.463Z,99092.80
2023-08-17T18:46:52.142Z,99094.94
2023-08-17T18:49:18.896Z,99092.47
2023-08-17T18:51:45.662Z,99091.94
2023-08-17T18:54:12.387Z,99094.95
2023-08-17T18:56:39.563Z,99090.00
2023-08-17T18:59:06.250Z,99088.60
2023-08-17T19:01:33.135Z,99088.28
2023-08-17T19:04:00.219Z,99088.09
2023-08-17T19:06:27.211Z,99089.28
2023-08-17T19:08:53.902Z,99084.43
2023-08-17T19:11:20.784Z,99086.86
2023-08-17T19:13:47.615Z,99084.36
2023-08-17T19:16:14.382Z,99084.46
2023-08-17T19:18:41.192Z,99089.33
2023-08-17T19:21:08.262Z,99092.73
2023-08-17T19:23:35.236Z,99097.52
2023-08-17T19:26:02.042Z,99098.11
2023-08-17T19:28:29.122Z,99099.45
2023-08-17T19:30:55.879Z,99101.42
2023-08-17T19:33:22.632Z,99104.71
2023-08-17T19:35:50.966Z,99104.55
2023-08-17T19:38:17.668Z,99111.23
2023-08-17T19:40:47.242Z,99113.48
2023-08-17T19:43:14.257Z,99119.17
2023-08-17T19:45:41.622Z,99117.77
2023-08-17T19:48:08.367Z,99120.40
2023-08-17T19:50:35.469Z,99120.17
2023-08-17T19:53:02.104Z,99117.31
2023-08-17T19:55:28.836Z,99117.85
2023-08-17T19:57:55.608Z,99116.44
2023-08-17T20:00:22.741Z,99120.90
2023-08-17T20:02:49.785Z,99124.11
2023-08-17T20:05:16.620Z,99119.93
2023-08-17T20:07:43.309Z,99120.04
2023-08-17T20:10:10.777Z,99118.75
2023-08-17T20:12:37.937Z,99120.08
2023-08-17T20:15:05.592Z,99121.61
2023-08-17T20:17:32.666Z,99124.38
2023-08-17T20:19:59.544Z,99124.52
2023-08-17T20:22:26.252Z,99123.02
2023-08-17T20:24:52.976Z,99122.90
2023-08-17T20:27:19.561Z,99120.44
2023-08-17T20:29:46.264Z,99119.09
2023-08-17T20:32:12.774Z,99119.89
2023-08-17T20:34:39.562Z,99118.38
2023-08-17T20:37:06.454Z,99118.10
2023-08-17T20:39:33.195Z,99113.38
2023-08-17T20:42:07.345Z,99110.90
2023-08-17T20:44:34.596Z,99109.77
2023-08-17T20:47:01.363Z,99108.38
2023-08-17T20:49:29.925Z,99110.85
2023-08-17T20:51:56.636Z,99113.14
2023-08-17T20:54:23.342Z,99109.95
2023-08-17T20:56:50.291Z,99110.69
2023-08-17T20:59:17.024Z,99115.45
2023-08-17T21:01:44.821Z,99119.23
2023-08-17T21:04:11.687Z,99122.69
2023-08-17T21:06:41.589Z,99122.95
2023-08-17T21:09:08.886Z,99125.67
2023-08-17T21:11:36.873Z,99121.00
2023-08-17T21:14:03.940Z,99123.55
2023-08-17T21:16:30.754Z,99127.18
2023-08-17T21:19:00.712Z,99126.86
2023-08-17T21:21:28.280Z,99125.14
2023-08-17T21:23:55.490Z,99122.49
2023-08-17T21:26:22.141Z,99122.55
2023-08-17T21:28:48.824Z,99118.89
2023-08-17T21:31:15.726Z,99121.40
2023-08-17T21:33:42.638Z,99122.52
2023-08-17T21:36:09.262Z,99121.14
2023-08-17T21:38:35.958Z,99118.89
2023-08-17T21:41:02.610Z,99120.31
2023-08-17T21:43:29.652Z,99119.29
2023-08-17T21:45:57.089Z,99118.27
2023-08-17T21:48:24.162Z,99118.66
2023-08-17T21:50:51.509Z,99118.40
2023-08-17T21:53:18.918Z,99118.77
2023-08-17T21:55:46.588Z,99124.95
2023-08-17T21:58:13.311Z,99121.90
2023-08-17T22:00:43.087Z,99125.73
2023-08-17T22:03:10.446Z,99123.95
2023-08-17T22:05:37.591Z,99126.40
2023-08-17T22:08:05.220Z,99130.36
2023-08-17T22:10:32.413Z,99129.10
2023-08-17T22:12:59.110Z,99132.97
2023-08-17T22:15:25.992Z,99136.02
2023-08-17T22:17:52.681Z,99134.44
2023-08-17T22:20:19.610Z,99138.69
2023-08-17T22:22:46.780Z,99139.80
2023-08-17T22:25:13.424Z,99141.57
2023-08-17T22:27:40.364Z,99141.73
2023-08-17T22:30:07.751Z,99140.94
2023-08-17T22:32:34.526Z,99143.16
2023-08-17T22:35:01.405Z,99146.20
2023-08-17T22:37:28.328Z,99144.20
2023-08-17T22:39:55.167Z,99144.92
2023-08-17T22:42:21.728Z,99147.97
2023-08-17T22:44:48.602Z,99149.80
2023-08-17T22:47:15.245Z,99152.11
2023-08-17T22:49:41.830Z,99148.84
2023-08-17T22:52:08.485Z,99150.31
2023-08-17T22:54:35.073Z,99146.27
2023-08-17T22:57:03.387Z,99146.92
2023-08-17T22:59:30.260Z,99149.79
2023-08-17T23:01:57.092Z,99151.63
2023-08-17T23:04:26.137Z,99149.64
2023-08-17T23:06:54.990Z,99153.43
2023-08-17T23:09:21.543Z,99150.14
2023-08-17T23:11:48.125Z,99150.33
2023-08-17T23:14:14.726Z,99153.89
2023-08-17T23:16:41.470Z,99152.09
2023-08-17T23:19:08.030Z,99152.20
2023-08-17T23:21:34.681Z,99154.97
2023-08-17T23:24:01.377Z,99158.72
2023-08-17T23:26:28.297Z,99157.86
2023-08-17T23:28:54.967Z,99159.68
2023-08-17T23:31:21.570Z,99163.80
2023-08-17T23:33:48.357Z,99161.38
2023-08-17T23:36:14.903Z,99161.55
2023-08-17T23:38:41.629Z,99161.23
2023-08-17T23:41:08.393Z,99166.25
2023-08-17T23:43:35.064Z,99167.50
2023-08-17T23:46:01.859Z,99173.07
2023-08-17T23:48:28.915Z,99177.98
2023-08-17T23:50:55.420Z,99177.42
2023-08-17T23:53:21.984Z,99178.08
2023-08-17T23:55:49.278Z,99179.45
2023-08-17T23:58:16.841Z,99181.52
